sensor_id;sensor_type;location;lat;lon;timestamp;temperature;humidity
11532;DHT22;5822;51.000;5.874;2023-02-01T00:00:12;8.50;99.90
11532;DHT22;5822;51.000;5.874;2023-02-01T00:02:38;8.50;99.90
11532;DHT22;5822;51.000;5.874;2023-02-01T00:05:08;8.50;99.90
11532;DHT22;5822;51.000;5.874;2023-02-01T00:07:34;8.50;99.90
11532;DHT22;5822;51.000;5.874;2023-02-01T00:10:00;8.50;99.90
11532;DHT22;5822;51.000;5.874;2023-02-01T00:12:26;8.50;99.90
11532;DHT22;5822;51.000;5.874;2023-02-01T00:14:51;8.50;99.90
11532;DHT22;5822;51.000;5.874;2023-02-01T00:17:17;8.50;99.90
11532;DHT22;5822;51.000;5.874;2023-02-01T00:19:43;8.50;99.90
11532;DHT22;5822;51.000;5.874;2023-02-01T00:22:08;8.50;99.90
11532;DHT22;5822;51.000;5.874;2023-02-01T00:24:34;8.60;99.90
11532;DHT22;5822;51.000;5.874;2023-02-01T00:26:59;8.50;99.90
11532;DHT22;5822;51.000;5.874;2023-02-01T00:29:25;8.50;99.90
11532;DHT22;5822;51.000;5.874;2023-02-01T00:31:51;8.50;99.90
11532;DHT22;5822;51.000;5.874;2023-02-01T00:34:18;8.40;99.90
11532;DHT22;5822;51.000;5.874;2023-02-01T00:36:43;8.50;99.90
11532;DHT22;5822;51.000;5.874;2023-02-01T00:39:10;8.50;99.90
11532;DHT22;5822;51.000;5.874;2023-02-01T00:41:36;8.50;99.90
11532;DHT22;5822;51.000;5.874;2023-02-01T00:44:02;8.60;99.90
11532;DHT22;5822;51.000;5.874;2023-02-01T00:46:28;8.50;99.90
11532;DHT22;5822;51.000;5.874;2023-02-01T00:48:54;8.40;99.90
11532;DHT22;5822;51.000;5.874;2023-02-01T00:51:22;8.40;99.90
11532;DHT22;5822;51.000;5.874;2023-02-01T00:53:49;8.40;99.90
11532;DHT22;5822;51.000;5.874;2023-02-01T00:56:15;8.50;99.90
11532;DHT22;5822;51.000;5.874;2023-02-01T00:58:41;8.50;99.90
11532;DHT22;5822;51.000;5.874;2023-02-01T01:01:20;8.50;99.90
11532;DHT22;5822;51.000;5.874;2023-02-01T01:03:48;8.40;99.90
11532;DHT22;5822;51.000;5.874;2023-02-01T01:06:18;8.40;99.90
11532;DHT22;5822;51.000;5.874;2023-02-01T01:08:44;8.40;99.90
11532;DHT22;5822;51.000;5.874;2023-02-01T01:11:22;8.40;99.90
11532;DHT22;5822;51.000;5.874;2023-02-01T01:13:49;8.30;99.90
11532;DHT22;5822;51.000;5.874;2023-02-01T01:16:16;8.20;99.90
11532;DHT22;5822;51.000;5.874;2023-02-01T01:18:42;8.30;99.90
11532;DHT22;5822;51.000;5.874;2023-02-01T01:21:09;8.30;99.90
11532;DHT22;5822;51.000;5.874;2023-02-01T01:23:35;8.30;99.90
11532;DHT22;5822;51.000;5.874;2023-02-01T01:26:08;8.30;99.90
11532;DHT22;5822;51.000;5.874;2023-02-01T01:28:34;8.30;99.90
11532;DHT22;5822;51.000;5.874;2023-02-01T01:31:00;8.30;99.90
11532;DHT22;5822;51.000;5.874;2023-02-01T01:33:25;8.40;99.90
11532;DHT22;5822;51.000;5.874;2023-02-01T01:35:51;8.50;99.90
11532;DHT22;5822;51.000;5.874;2023-02-01T01:38:17;8.50;99.90
11532;DHT22;5822;51.000;5.874;2023-02-01T01:40:46;8.50;99.90
11532;DHT22;5822;51.000;5.874;2023-02-01T01:43:18;8.50;99.90
11532;DHT22;5822;51.000;5.874;2023-02-01T01:45:45;8.50;99.90
11532;DHT22;5822;51.000;5.874;2023-02-01T01:48:21;8.50;99.90
11532;DHT22;5822;51.000;5.874;2023-02-01T01:50:52;8.50;99.90
11532;DHT22;5822;51.000;5.874;2023-02-01T01:53:23;8.50;99.90
11532;DHT22;5822;51.000;5.874;2023-02-01T01:55:51;8.60;99.90
11532;DHT22;5822;51.000;5.874;2023-02-01T01:58:19;8.50;99.90
11532;DHT22;5822;51.000;5.874;2023-02-01T02:00:47;8.60;99.90
11532;DHT22;5822;51.000;5.874;2023-02-01T02:03:35;8.60;99.90
11532;DHT22;5822;51.000;5.874;2023-02-01T02:06:04;8.60;99.90
11532;DHT22;5822;51.000;5.874;2023-02-01T02:08:33;8.60;99.90
11532;DHT22;5822;51.000;5.874;2023-02-01T02:10:59;8.60;99.90
11532;DHT22;5822;51.000;5.874;2023-02-01T02:13:38;8.60;99.90
11532;DHT22;5822;51.000;5.874;2023-02-01T02:41:36;8.50;99.90
11532;DHT22;5822;51.000;5.874;2023-02-01T02:44:27;8.50;99.90
11532;DHT22;5822;51.000;5.874;2023-02-01T02:50:31;8.60;99.90
11532;DHT22;5822;51.000;5.874;2023-02-01T02:53:41;8.50;99.90
11532;DHT22;5822;51.000;5.874;2023-02-01T02:56:30;8.40;99.90
11532;DHT22;5822;51.000;5.874;2023-02-01T02:59:18;8.50;99.90
11532;DHT22;5822;51.000;5.874;2023-02-01T03:02:04;8.50;99.90
11532;DHT22;5822;51.000;5.874;2023-02-01T03:04:53;8.50;99.90
11532;DHT22;5822;51.000;5.874;2023-02-01T03:07:53;8.50;99.90
11532;DHT22;5822;51.000;5.874;2023-02-01T03:21:41;8.30;99.90
11532;DHT22;5822;51.000;5.874;2023-02-01T03:25:01;8.30;99.90
11532;DHT22;5822;51.000;5.874;2023-02-01T03:27:35;8.30;99.90
11532;DHT22;5822;51.000;5.874;2023-02-01T03:30:15;8.40;99.90
11532;DHT22;5822;51.000;5.874;2023-02-01T03:32:44;8.30;99.90
11532;DHT22;5822;51.000;5.874;2023-02-01T03:35:40;8.30;99.90
11532;DHT22;5822;51.000;5.874;2023-02-01T03:40:36;8.30;99.90
11532;DHT22;5822;51.000;5.874;2023-02-01T03:43:05;8.40;99.90
11532;DHT22;5822;51.000;5.874;2023-02-01T03:45:39;8.40;99.90
11532;DHT22;5822;51.000;5.874;2023-02-01T03:48:09;8.30;99.90
11532;DHT22;5822;51.000;5.874;2023-02-01T03:50:37;8.20;99.90
11532;DHT22;5822;51.000;5.874;2023-02-01T03:53:10;8.20;99.90
11532;DHT22;5822;51.000;5.874;2023-02-01T03:55:41;8.20;99.90
11532;DHT22;5822;51.000;5.874;2023-02-01T03:58:08;8.10;99.90
11532;DHT22;5822;51.000;5.874;2023-02-01T04:00:35;8.10;99.90
11532;DHT22;5822;51.000;5.874;2023-02-01T04:03:05;8.10;99.90
11532;DHT22;5822;51.000;5.874;2023-02-01T04:05:32;8.10;99.90
11532;DHT22;5822;51.000;5.874;2023-02-01T04:07:58;8.20;99.90
11532;DHT22;5822;51.000;5.874;2023-02-01T04:10:24;8.20;99.90
11532;DHT22;5822;51.000;5.874;2023-02-01T04:12:49;8.20;99.90
11532;DHT22;5822;51.000;5.874;2023-02-01T04:15:15;8.20;99.90
11532;DHT22;5822;51.000;5.874;2023-02-01T04:17:41;8.20;99.90
11532;DHT22;5822;51.000;5.874;2023-02-01T04:20:06;8.30;99.90
11532;DHT22;5822;51.000;5.874;2023-02-01T04:22:32;8.20;99.90
11532;DHT22;5822;51.000;5.874;2023-02-01T04:24:58;8.30;99.90
11532;DHT22;5822;51.000;5.874;2023-02-01T04:27:24;8.30;99.90
11532;DHT22;5822;51.000;5.874;2023-02-01T04:29:49;8.30;99.90
11532;DHT22;5822;51.000;5.874;2023-02-01T04:32:16;8.30;99.90
11532;DHT22;5822;51.000;5.874;2023-02-01T04:34:42;8.30;99.90
11532;DHT22;5822;51.000;5.874;2023-02-01T04:37:08;8.20;99.90
11532;DHT22;5822;51.000;5.874;2023-02-01T04:39:33;8.20;99.90
11532;DHT22;5822;51.000;5.874;2023-02-01T04:41:59;8.10;99.90
11532;DHT22;5822;51.000;5.874;2023-02-01T04:44:25;8.10;99.90
11532;DHT22;5822;51.000;5.874;2023-02-01T04:46:50;8.10;99.90
11532;DHT22;5822;51.000;5.874;2023-02-01T04:49:16;8.10;99.90
11532;DHT22;5822;51.000;5.874;2023-02-01T04:51:42;8.10;99.90
11532;DHT22;5822;51.000;5.874;2023-02-01T04:54:09;8.10;99.90
11532;DHT22;5822;51.000;5.874;2023-02-01T04:56:37;8.10;99.90
11532;DHT22;5822;51.000;5.874;2023-02-01T04:59:02;8.20;99.90
11532;DHT22;5822;51.000;5.874;2023-02-01T05:01:29;8.20;99.90
11532;DHT22;5822;51.000;5.874;2023-02-01T05:03:54;8.20;99.90
11532;DHT22;5822;51.000;5.874;2023-02-01T05:06:20;8.20;99.90
11532;DHT22;5822;51.000;5.874;2023-02-01T05:08:46;8.20;99.90
11532;DHT22;5822;51.000;5.874;2023-02-01T05:11:12;8.10;99.90
11532;DHT22;5822;51.000;5.874;2023-02-01T05:13:58;8.10;99.90
11532;DHT22;5822;51.000;5.874;2023-02-01T05:16:25;8.10;99.90
11532;DHT22;5822;51.000;5.874;2023-02-01T05:18:50;8.00;99.90
11532;DHT22;5822;51.000;5.874;2023-02-01T05:21:17;8.00;99.90
11532;DHT22;5822;51.000;5.874;2023-02-01T05:23:43;7.90;99.90
11532;DHT22;5822;51.000;5.874;2023-02-01T05:26:27;7.90;99.90
11532;DHT22;5822;51.000;5.874;2023-02-01T05:28:52;7.90;99.90
11532;DHT22;5822;51.000;5.874;2023-02-01T05:31:18;7.80;99.90
11532;DHT22;5822;51.000;5.874;2023-02-01T05:33:46;8.00;99.90
11532;DHT22;5822;51.000;5.874;2023-02-01T05:36:12;8.00;99.90
11532;DHT22;5822;51.000;5.874;2023-02-01T05:38:37;8.00;99.90
11532;DHT22;5822;51.000;5.874;2023-02-01T05:41:03;8.00;99.90
11532;DHT22;5822;51.000;5.874;2023-02-01T05:43:29;8.10;99.90
11532;DHT22;5822;51.000;5.874;2023-02-01T05:45:54;8.00;99.90
11532;DHT22;5822;51.000;5.874;2023-02-01T05:48:20;8.00;99.90
11532;DHT22;5822;51.000;5.874;2023-02-01T05:50:46;7.90;99.90
11532;DHT22;5822;51.000;5.874;2023-02-01T05:53:12;7.90;99.90
11532;DHT22;5822;51.000;5.874;2023-02-01T05:55:38;7.90;99.90
11532;DHT22;5822;51.000;5.874;2023-02-01T05:58:04;7.90;99.90
11532;DHT22;5822;51.000;5.874;2023-02-01T06:00:31;7.80;99.90
11532;DHT22;5822;51.000;5.874;2023-02-01T06:02:56;7.80;99.90
11532;DHT22;5822;51.000;5.874;2023-02-01T06:05:22;7.90;99.90
11532;DHT22;5822;51.000;5.874;2023-02-01T06:07:48;7.70;99.90
11532;DHT22;5822;51.000;5.874;2023-02-01T06:10:16;7.80;99.90
11532;DHT22;5822;51.000;5.874;2023-02-01T06:12:42;7.90;99.90
11532;DHT22;5822;51.000;5.874;2023-02-01T06:15:08;7.90;99.90
11532;DHT22;5822;51.000;5.874;2023-02-01T06:17:34;7.80;99.90
11532;DHT22;5822;51.000;5.874;2023-02-01T06:19:59;7.90;99.90
11532;DHT22;5822;51.000;5.874;2023-02-01T06:22:25;7.80;99.90
11532;DHT22;5822;51.000;5.874;2023-02-01T06:24:50;7.80;99.90
11532;DHT22;5822;51.000;5.874;2023-02-01T06:27:16;7.80;99.90
11532;DHT22;5822;51.000;5.874;2023-02-01T06:29:42;7.70;99.90
11532;DHT22;5822;51.000;5.874;2023-02-01T06:32:07;7.80;99.90
11532;DHT22;5822;51.000;5.874;2023-02-01T06:34:34;7.70;99.90
11532;DHT22;5822;51.000;5.874;2023-02-01T06:36:59;7.70;99.90
11532;DHT22;5822;51.000;5.874;2023-02-01T06:39:25;7.80;99.90
11532;DHT22;5822;51.000;5.874;2023-02-01T06:41:53;7.80;99.90
11532;DHT22;5822;51.000;5.874;2023-02-01T06:44:18;7.80;99.90
11532;DHT22;5822;51.000;5.874;2023-02-01T06:46:44;7.70;99.90
11532;DHT22;5822;51.000;5.874;2023-02-01T06:49:09;7.70;99.90
11532;DHT22;5822;51.000;5.874;2023-02-01T06:51:35;7.60;99.90
11532;DHT22;5822;51.000;5.874;2023-02-01T06:54:01;7.60;99.90
11532;DHT22;5822;51.000;5.874;2023-02-01T06:56:27;7.60;99.90
11532;DHT22;5822;51.000;5.874;2023-02-01T06:58:53;7.70;99.90
11532;DHT22;5822;51.000;5.874;2023-02-01T07:01:19;7.60;99.90
11532;DHT22;5822;51.000;5.874;2023-02-01T07:03:49;7.70;99.90
11532;DHT22;5822;51.000;5.874;2023-02-01T07:06:16;7.70;99.90
11532;DHT22;5822;51.000;5.874;2023-02-01T07:08:42;7.70;99.90
11532;DHT22;5822;51.000;5.874;2023-02-01T07:11:10;7.60;99.90
11532;DHT22;5822;51.000;5.874;2023-02-01T07:13:36;7.60;99.90
11532;DHT22;5822;51.000;5.874;2023-02-01T07:16:03;7.60;99.90
11532;DHT22;5822;51.000;5.874;2023-02-01T07:18:30;7.50;99.90
11532;DHT22;5822;51.000;5.874;2023-02-01T07:20:56;7.50;99.90
11532;DHT22;5822;51.000;5.874;2023-02-01T07:23:22;7.50;99.90
11532;DHT22;5822;51.000;5.874;2023-02-01T07:25:48;7.50;99.90
11532;DHT22;5822;51.000;5.874;2023-02-01T07:28:14;7.60;99.90
11532;DHT22;5822;51.000;5.874;2023-02-01T07:30:40;7.70;99.90
11532;DHT22;5822;51.000;5.874;2023-02-01T07:33:07;7.70;99.90
11532;DHT22;5822;51.000;5.874;2023-02-01T07:35:32;7.60;99.90
11532;DHT22;5822;51.000;5.874;2023-02-01T07:37:58;7.60;99.90
11532;DHT22;5822;51.000;5.874;2023-02-01T07:40:24;7.60;99.90
11532;DHT22;5822;51.000;5.874;2023-02-01T07:42:54;7.70;99.90
11532;DHT22;5822;51.000;5.874;2023-02-01T07:45:21;7.70;99.90
11532;DHT22;5822;51.000;5.874;2023-02-01T07:47:47;7.80;99.90
11532;DHT22;5822;51.000;5.874;2023-02-01T07:50:12;7.70;99.90
11532;DHT22;5822;51.000;5.874;2023-02-01T07:52:38;7.80;99.90
11532;DHT22;5822;51.000;5.874;2023-02-01T07:55:05;7.70;99.90
11532;DHT22;5822;51.000;5.874;2023-02-01T07:57:31;7.70;99.90
11532;DHT22;5822;51.000;5.874;2023-02-01T07:59:57;7.70;99.90
11532;DHT22;5822;51.000;5.874;2023-02-01T08:02:48;7.70;99.90
11532;DHT22;5822;51.000;5.874;2023-02-01T08:05:14;7.80;99.90
11532;DHT22;5822;51.000;5.874;2023-02-01T08:07:40;7.80;99.90
11532;DHT22;5822;51.000;5.874;2023-02-01T08:10:06;7.70;99.90
11532;DHT22;5822;51.000;5.874;2023-02-01T08:12:36;7.70;99.90
11532;DHT22;5822;51.000;5.874;2023-02-01T08:15:03;7.70;99.90
11532;DHT22;5822;51.000;5.874;2023-02-01T08:17:29;7.50;99.90
11532;DHT22;5822;51.000;5.874;2023-02-01T08:19:54;7.60;99.90
11532;DHT22;5822;51.000;5.874;2023-02-01T08:22:20;7.50;99.90
11532;DHT22;5822;51.000;5.874;2023-02-01T08:24:49;7.60;99.90
11532;DHT22;5822;51.000;5.874;2023-02-01T08:27:15;7.60;99.90
11532;DHT22;5822;51.000;5.874;2023-02-01T08:29:41;7.70;99.90
11532;DHT22;5822;51.000;5.874;2023-02-01T08:32:06;7.60;99.90
11532;DHT22;5822;51.000;5.874;2023-02-01T08:34:32;7.60;99.90
11532;DHT22;5822;51.000;5.874;2023-02-01T08:36:58;7.60;99.90
11532;DHT22;5822;51.000;5.874;2023-02-01T08:39:24;7.60;99.90
11532;DHT22;5822;51.000;5.874;2023-02-01T08:41:50;7.70;99.90
11532;DHT22;5822;51.000;5.874;2023-02-01T08:44:34;7.50;99.90
11532;DHT22;5822;51.000;5.874;2023-02-01T08:47:00;7.60;99.90
11532;DHT22;5822;51.000;5.874;2023-02-01T08:49:26;7.60;99.90
11532;DHT22;5822;51.000;5.874;2023-02-01T08:51:51;7.60;99.90
11532;DHT22;5822;51.000;5.874;2023-02-01T08:54:17;7.60;99.90
11532;DHT22;5822;51.000;5.874;2023-02-01T08:56:43;7.60;99.90
11532;DHT22;5822;51.000;5.874;2023-02-01T08:59:08;7.70;99.90
11532;DHT22;5822;51.000;5.874;2023-02-01T09:01:34;7.60;99.90
11532;DHT22;5822;51.000;5.874;2023-02-01T09:04:00;7.70;99.90
11532;DHT22;5822;51.000;5.874;2023-02-01T09:06:25;7.60;99.90
11532;DHT22;5822;51.000;5.874;2023-02-01T09:08:51;7.60;99.90
11532;DHT22;5822;51.000;5.874;2023-02-01T09:11:18;7.80;99.90
11532;DHT22;5822;51.000;5.874;2023-02-01T09:13:47;7.90;99.90
11532;DHT22;5822;51.000;5.874;2023-02-01T09:16:13;7.90;99.90
11532;DHT22;5822;51.000;5.874;2023-02-01T09:18:39;7.90;99.90
11532;DHT22;5822;51.000;5.874;2023-02-01T09:21:08;7.90;99.90
11532;DHT22;5822;51.000;5.874;2023-02-01T09:23:34;7.90;99.90
11532;DHT22;5822;51.000;5.874;2023-02-01T09:26:01;8.00;99.90
11532;DHT22;5822;51.000;5.874;2023-02-01T09:28:28;8.00;99.90
11532;DHT22;5822;51.000;5.874;2023-02-01T09:30:58;8.00;99.90
11532;DHT22;5822;51.000;5.874;2023-02-01T09:33:24;8.00;99.90
11532;DHT22;5822;51.000;5.874;2023-02-01T09:35:56;8.00;99.90
11532;DHT22;5822;51.000;5.874;2023-02-01T09:38:21;8.10;99.90
11532;DHT22;5822;51.000;5.874;2023-02-01T09:40:47;8.10;99.90
11532;DHT22;5822;51.000;5.874;2023-02-01T09:46:23;8.10;99.90
11532;DHT22;5822;51.000;5.874;2023-02-01T09:48:54;8.10;99.90
11532;DHT22;5822;51.000;5.874;2023-02-01T09:51:27;8.10;99.90
11532;DHT22;5822;51.000;5.874;2023-02-01T09:54:16;8.20;99.90
11532;DHT22;5822;51.000;5.874;2023-02-01T10:00:29;8.20;99.90
11532;DHT22;5822;51.000;5.874;2023-02-01T10:02:54;8.20;99.90
11532;DHT22;5822;51.000;5.874;2023-02-01T10:05:58;8.20;99.90
11532;DHT22;5822;51.000;5.874;2023-02-01T10:08:38;8.30;99.90
11532;DHT22;5822;51.000;5.874;2023-02-01T10:12:00;8.30;99.90
11532;DHT22;5822;51.000;5.874;2023-02-01T10:26:25;8.30;99.90
11532;DHT22;5822;51.000;5.874;2023-02-01T10:28:53;8.40;99.90
11532;DHT22;5822;51.000;5.874;2023-02-01T10:31:24;8.50;99.90
11532;DHT22;5822;51.000;5.874;2023-02-01T10:34:01;8.50;99.90
11532;DHT22;5822;51.000;5.874;2023-02-01T10:36:35;8.50;99.90
11532;DHT22;5822;51.000;5.874;2023-02-01T10:39:03;8.60;99.90
11532;DHT22;5822;51.000;5.874;2023-02-01T10:41:39;8.60;99.90
11532;DHT22;5822;51.000;5.874;2023-02-01T10:44:14;8.60;99.90
11532;DHT22;5822;51.000;5.874;2023-02-01T10:46:41;8.70;99.90
11532;DHT22;5822;51.000;5.874;2023-02-01T10:49:14;8.70;99.90
11532;DHT22;5822;51.000;5.874;2023-02-01T10:54:34;8.60;99.90
11532;DHT22;5822;51.000;5.874;2023-02-01T10:57:10;8.70;99.90
11532;DHT22;5822;51.000;5.874;2023-02-01T10:59:36;8.70;99.90
11532;DHT22;5822;51.000;5.874;2023-02-01T11:02:16;8.70;99.90
11532;DHT22;5822;51.000;5.874;2023-02-01T11:04:44;8.80;99.90
11532;DHT22;5822;51.000;5.874;2023-02-01T11:07:23;8.80;99.90
11532;DHT22;5822;51.000;5.874;2023-02-01T11:09:53;8.90;99.90
11532;DHT22;5822;51.000;5.874;2023-02-01T11:12:38;8.90;99.90
11532;DHT22;5822;51.000;5.874;2023-02-01T11:15:21;8.90;99.90
11532;DHT22;5822;51.000;5.874;2023-02-01T11:17:49;9.00;99.90
11532;DHT22;5822;51.000;5.874;2023-02-01T11:20:40;9.10;99.90
11532;DHT22;5822;51.000;5.874;2023-02-01T11:23:15;9.20;99.90
11532;DHT22;5822;51.000;5.874;2023-02-01T11:25:49;9.30;99.90
11532;DHT22;5822;51.000;5.874;2023-02-01T11:28:16;9.20;99.90
11532;DHT22;5822;51.000;5.874;2023-02-01T11:30:45;9.30;99.90
11532;DHT22;5822;51.000;5.874;2023-02-01T11:33:18;9.30;99.90
11532;DHT22;5822;51.000;5.874;2023-02-01T11:35:44;9.30;99.90
11532;DHT22;5822;51.000;5.874;2023-02-01T11:38:20;9.40;99.90
11532;DHT22;5822;51.000;5.874;2023-02-01T11:40:46;9.50;99.90
11532;DHT22;5822;51.000;5.874;2023-02-01T11:43:25;9.50;99.90
11532;DHT22;5822;51.000;5.874;2023-02-01T11:45:59;9.40;99.90
11532;DHT22;5822;51.000;5.874;2023-02-01T11:48:31;9.40;99.90
11532;DHT22;5822;51.000;5.874;2023-02-01T11:51:22;9.30;99.90
11532;DHT22;5822;51.000;5.874;2023-02-01T12:07:17;9.40;99.90
11532;DHT22;5822;51.000;5.874;2023-02-01T12:10:06;9.50;99.90
11532;DHT22;5822;51.000;5.874;2023-02-01T12:15:40;9.60;99.90
11532;DHT22;5822;51.000;5.874;2023-02-01T12:24:56;9.70;99.90
11532;DHT22;5822;51.000;5.874;2023-02-01T12:29:57;9.80;99.90
11532;DHT22;5822;51.000;5.874;2023-02-01T12:35:13;9.70;99.90
11532;DHT22;5822;51.000;5.874;2023-02-01T12:37:54;9.70;99.90
11532;DHT22;5822;51.000;5.874;2023-02-01T12:40:38;9.70;99.90
11532;DHT22;5822;51.000;5.874;2023-02-01T12:43:48;9.70;99.90
11532;DHT22;5822;51.000;5.874;2023-02-01T12:46:17;9.80;99.90
11532;DHT22;5822;51.000;5.874;2023-02-01T12:48:57;9.70;99.90
11532;DHT22;5822;51.000;5.874;2023-02-01T12:51:31;9.70;99.90
11532;DHT22;5822;51.000;5.874;2023-02-01T12:54:23;9.80;99.90
11532;DHT22;5822;51.000;5.874;2023-02-01T12:56:55;9.80;99.90
11532;DHT22;5822;51.000;5.874;2023-02-01T12:59:42;9.70;99.90
11532;DHT22;5822;51.000;5.874;2023-02-01T13:05:11;9.80;99.90
11532;DHT22;5822;51.000;5.874;2023-02-01T13:08:02;9.80;99.90
11532;DHT22;5822;51.000;5.874;2023-02-01T13:10:47;9.70;99.90
11532;DHT22;5822;51.000;5.874;2023-02-01T13:13:26;9.70;99.90
11532;DHT22;5822;51.000;5.874;2023-02-01T13:16:08;9.70;99.90
11532;DHT22;5822;51.000;5.874;2023-02-01T13:18:41;9.70;99.90
11532;DHT22;5822;51.000;5.874;2023-02-01T13:21:27;9.70;99.90
11532;DHT22;5822;51.000;5.874;2023-02-01T13:23:54;9.70;99.90
11532;DHT22;5822;51.000;5.874;2023-02-01T13:26:23;9.70;99.90
11532;DHT22;5822;51.000;5.874;2023-02-01T13:29:05;9.70;99.90
11532;DHT22;5822;51.000;5.874;2023-02-01T13:31:51;9.80;99.90
11532;DHT22;5822;51.000;5.874;2023-02-01T13:34:46;9.80;99.90
11532;DHT22;5822;51.000;5.874;2023-02-01T13:42:54;9.80;99.90
11532;DHT22;5822;51.000;5.874;2023-02-01T13:45:23;9.80;99.90
11532;DHT22;5822;51.000;5.874;2023-02-01T13:47:52;9.70;99.90
11532;DHT22;5822;51.000;5.874;2023-02-01T13:50:29;9.70;99.90
11532;DHT22;5822;51.000;5.874;2023-02-01T13:52:58;9.80;99.90
11532;DHT22;5822;51.000;5.874;2023-02-01T13:55:33;9.80;99.90
11532;DHT22;5822;51.000;5.874;2023-02-01T13:58:03;9.80;99.90
11532;DHT22;5822;51.000;5.874;2023-02-01T14:00:40;9.80;99.90
11532;DHT22;5822;51.000;5.874;2023-02-01T14:23:55;9.80;99.90
11532;DHT22;5822;51.000;5.874;2023-02-01T14:26:23;9.90;99.90
11532;DHT22;5822;51.000;5.874;2023-02-01T14:29:30;9.90;99.90
11532;DHT22;5822;51.000;5.874;2023-02-01T14:34:39;9.90;99.90
11532;DHT22;5822;51.000;5.874;2023-02-01T14:37:13;10.00;99.90
11532;DHT22;5822;51.000;5.874;2023-02-01T14:40:03;10.00;99.90
11532;DHT22;5822;51.000;5.874;2023-02-01T14:47:53;10.00;99.90
11532;DHT22;5822;51.000;5.874;2023-02-01T14:55:53;10.00;99.90
11532;DHT22;5822;51.000;5.874;2023-02-01T15:01:29;10.00;99.90
11532;DHT22;5822;51.000;5.874;2023-02-01T15:06:33;10.10;99.90
11532;DHT22;5822;51.000;5.874;2023-02-01T15:17:24;10.00;99.90
11532;DHT22;5822;51.000;5.874;2023-02-01T15:19:55;9.90;99.90
11532;DHT22;5822;51.000;5.874;2023-02-01T15:22:22;9.90;99.90
11532;DHT22;5822;51.000;5.874;2023-02-01T15:24:55;9.90;99.90
11532;DHT22;5822;51.000;5.874;2023-02-01T15:27:22;9.80;99.90
11532;DHT22;5822;51.000;5.874;2023-02-01T15:29:47;9.90;99.90
11532;DHT22;5822;51.000;5.874;2023-02-01T15:32:37;9.80;99.90
11532;DHT22;5822;51.000;5.874;2023-02-01T15:35:33;9.80;99.90
11532;DHT22;5822;51.000;5.874;2023-02-01T15:38:25;9.80;99.90
11532;DHT22;5822;51.000;5.874;2023-02-01T15:43:23;9.60;99.90
11532;DHT22;5822;51.000;5.874;2023-02-01T15:45:48;9.60;99.90
11532;DHT22;5822;51.000;5.874;2023-02-01T15:48:22;9.60;99.90
11532;DHT22;5822;51.000;5.874;2023-02-01T15:50:49;9.50;99.90
11532;DHT22;5822;51.000;5.874;2023-02-01T15:53:22;9.50;99.90
11532;DHT22;5822;51.000;5.874;2023-02-01T15:55:53;9.50;99.90
11532;DHT22;5822;51.000;5.874;2023-02-01T15:58:22;9.50;99.90
11532;DHT22;5822;51.000;5.874;2023-02-01T16:00:57;9.40;99.90
11532;DHT22;5822;51.000;5.874;2023-02-01T16:03:35;9.40;99.90
11532;DHT22;5822;51.000;5.874;2023-02-01T16:06:25;9.40;99.90
11532;DHT22;5822;51.000;5.874;2023-02-01T16:08:51;9.30;99.90
11532;DHT22;5822;51.000;5.874;2023-02-01T16:13:55;9.30;99.90
11532;DHT22;5822;51.000;5.874;2023-02-01T16:16:21;9.30;99.90
11532;DHT22;5822;51.000;5.874;2023-02-01T16:18:47;9.30;99.90
11532;DHT22;5822;51.000;5.874;2023-02-01T16:21:13;9.20;99.90
11532;DHT22;5822;51.000;5.874;2023-02-01T16:23:39;9.20;99.90
11532;DHT22;5822;51.000;5.874;2023-02-01T16:26:05;9.20;99.90
11532;DHT22;5822;51.000;5.874;2023-02-01T16:28:31;9.20;99.90
11532;DHT22;5822;51.000;5.874;2023-02-01T16:30:57;9.30;99.90
11532;DHT22;5822;51.000;5.874;2023-02-01T16:33:24;9.20;99.90
11532;DHT22;5822;51.000;5.874;2023-02-01T16:35:50;9.20;99.90
11532;DHT22;5822;51.000;5.874;2023-02-01T16:38:18;9.20;99.90
11532;DHT22;5822;51.000;5.874;2023-02-01T16:40:47;9.20;99.90
11532;DHT22;5822;51.000;5.874;2023-02-01T16:43:18;9.20;99.90
11532;DHT22;5822;51.000;5.874;2023-02-01T16:45:45;9.30;99.90
11532;DHT22;5822;51.000;5.874;2023-02-01T16:48:22;9.30;99.90
11532;DHT22;5822;51.000;5.874;2023-02-01T16:51:03;9.30;99.90
11532;DHT22;5822;51.000;5.874;2023-02-01T16:53:32;9.30;99.90
11532;DHT22;5822;51.000;5.874;2023-02-01T16:55:58;9.20;99.90
11532;DHT22;5822;51.000;5.874;2023-02-01T16:58:25;9.30;99.90
11532;DHT22;5822;51.000;5.874;2023-02-01T17:00:51;9.30;99.90
11532;DHT22;5822;51.000;5.874;2023-02-01T17:03:17;9.40;99.90
11532;DHT22;5822;51.000;5.874;2023-02-01T17:05:46;9.30;99.90
11532;DHT22;5822;51.000;5.874;2023-02-01T17:08:17;9.20;99.90
11532;DHT22;5822;51.000;5.874;2023-02-01T17:10:45;9.20;99.90
11532;DHT22;5822;51.000;5.874;2023-02-01T17:13:15;9.10;99.90
11532;DHT22;5822;51.000;5.874;2023-02-01T17:15:45;9.10;99.90
11532;DHT22;5822;51.000;5.874;2023-02-01T17:18:15;9.10;99.90
11532;DHT22;5822;51.000;5.874;2023-02-01T17:20:41;9.20;99.90
11532;DHT22;5822;51.000;5.874;2023-02-01T17:23:07;9.10;99.90
11532;DHT22;5822;51.000;5.874;2023-02-01T17:25:32;9.20;99.90
11532;DHT22;5822;51.000;5.874;2023-02-01T17:27:58;9.10;99.90
11532;DHT22;5822;51.000;5.874;2023-02-01T17:30:24;9.20;99.90
11532;DHT22;5822;51.000;5.874;2023-02-01T17:32:49;9.10;99.90
11532;DHT22;5822;51.000;5.874;2023-02-01T17:35:21;9.10;99.90
11532;DHT22;5822;51.000;5.874;2023-02-01T17:37:48;9.10;99.90
11532;DHT22;5822;51.000;5.874;2023-02-01T17:40:14;9.10;99.90
11532;DHT22;5822;51.000;5.874;2023-02-01T17:42:40;9.10;99.90
11532;DHT22;5822;51.000;5.874;2023-02-01T17:45:35;9.20;99.90
11532;DHT22;5822;51.000;5.874;2023-02-01T17:48:03;9.20;99.90
11532;DHT22;5822;51.000;5.874;2023-02-01T17:50:31;9.20;99.90
11532;DHT22;5822;51.000;5.874;2023-02-01T17:52:57;9.30;99.90
11532;DHT22;5822;51.000;5.874;2023-02-01T17:55:24;9.30;99.90
11532;DHT22;5822;51.000;5.874;2023-02-01T17:57:50;9.30;99.90
11532;DHT22;5822;51.000;5.874;2023-02-01T18:00:17;9.40;99.90
11532;DHT22;5822;51.000;5.874;2023-02-01T18:02:44;9.30;99.90
11532;DHT22;5822;51.000;5.874;2023-02-01T18:05:16;9.30;99.90
11532;DHT22;5822;51.000;5.874;2023-02-01T18:07:42;9.30;99.90
11532;DHT22;5822;51.000;5.874;2023-02-01T18:10:09;9.40;99.90
11532;DHT22;5822;51.000;5.874;2023-02-01T18:12:35;9.40;99.90
11532;DHT22;5822;51.000;5.874;2023-02-01T18:15:17;9.40;99.90
11532;DHT22;5822;51.000;5.874;2023-02-01T18:17:43;9.40;99.90
11532;DHT22;5822;51.000;5.874;2023-02-01T18:20:17;9.40;99.90
11532;DHT22;5822;51.000;5.874;2023-02-01T18:22:44;9.50;99.90
11532;DHT22;5822;51.000;5.874;2023-02-01T18:25:16;9.50;99.90
11532;DHT22;5822;51.000;5.874;2023-02-01T18:27:42;9.50;99.90
11532;DHT22;5822;51.000;5.874;2023-02-01T18:30:09;9.50;99.90
11532;DHT22;5822;51.000;5.874;2023-02-01T18:32:35;9.50;99.90
11532;DHT22;5822;51.000;5.874;2023-02-01T18:35:01;9.40;99.90
11532;DHT22;5822;51.000;5.874;2023-02-01T18:37:26;9.40;99.90
11532;DHT22;5822;51.000;5.874;2023-02-01T18:39:52;9.50;99.90
11532;DHT22;5822;51.000;5.874;2023-02-01T18:42:17;9.50;99.90
11532;DHT22;5822;51.000;5.874;2023-02-01T18:44:43;9.50;99.90
11532;DHT22;5822;51.000;5.874;2023-02-01T18:47:09;9.50;99.90
11532;DHT22;5822;51.000;5.874;2023-02-01T18:49:35;9.40;99.90
11532;DHT22;5822;51.000;5.874;2023-02-01T18:52:00;9.40;99.90
11532;DHT22;5822;51.000;5.874;2023-02-01T18:54:26;9.40;99.90
11532;DHT22;5822;51.000;5.874;2023-02-01T18:56:52;9.50;99.90